sensor_id;sensor_type;location;lat;lon;timestamp;temperature;humidity
8820;DHT22;4446;50.876;4.736;2023-05-07T00:01:39;13.70;99.90
8820;DHT22;4446;50.876;4.736;2023-05-07T00:04:06;13.70;99.90
8820;DHT22;4446;50.876;4.736;2023-05-07T00:06:34;13.80;99.90
8820;DHT22;4446;50.876;4.736;2023-05-07T00:09:01;13.80;99.90
8820;DHT22;4446;50.876;4.736;2023-05-07T00:11:29;13.80;99.90
8820;DHT22;4446;50.876;4.736;2023-05-07T00:13:56;13.90;99.90
8820;DHT22;4446;50.876;4.736;2023-05-07T00:16:24;13.90;99.90
8820;DHT22;4446;50.876;4.736;2023-05-07T00:18:51;14.00;99.90
8820;DHT22;4446;50.876;4.736;2023-05-07T00:21:18;14.00;99.90
8820;DHT22;4446;50.876;4.736;2023-05-07T00:23:47;14.00;99.90
8820;DHT22;4446;50.876;4.736;2023-05-07T00:26:14;14.00;99.90
8820;DHT22;4446;50.876;4.736;2023-05-07T00:28:41;14.00;99.90
8820;DHT22;4446;50.876;4.736;2023-05-07T00:31:08;14.00;99.90
8820;DHT22;4446;50.876;4.736;2023-05-07T00:33:37;14.00;99.90
8820;DHT22;4446;50.876;4.736;2023-05-07T00:36:04;14.00;99.90
8820;DHT22;4446;50.876;4.736;2023-05-07T00:38:31;13.90;99.90
8820;DHT22;4446;50.876;4.736;2023-05-07T00:40:59;13.90;99.90
8820;DHT22;4446;50.876;4.736;2023-05-07T00:43:27;13.90;99.90
8820;DHT22;4446;50.876;4.736;2023-05-07T00:45:55;13.90;99.90
8820;DHT22;4446;50.876;4.736;2023-05-07T00:48:22;13.80;99.90
8820;DHT22;4446;50.876;4.736;2023-05-07T00:50:51;13.80;99.90
8820;DHT22;4446;50.876;4.736;2023-05-07T00:53:18;13.70;99.90
8820;DHT22;4446;50.876;4.736;2023-05-07T00:55:46;13.70;99.90
8820;DHT22;4446;50.876;4.736;2023-05-07T00:58:13;13.70;99.90
8820;DHT22;4446;50.876;4.736;2023-05-07T01:00:40;13.70;99.90
8820;DHT22;4446;50.876;4.736;2023-05-07T01:03:07;13.70;99.90
8820;DHT22;4446;50.876;4.736;2023-05-07T01:05:34;13.60;99.90
8820;DHT22;4446;50.876;4.736;2023-05-07T01:08:04;13.70;99.90
8820;DHT22;4446;50.876;4.736;2023-05-07T01:10:31;13.70;99.90
8820;DHT22;4446;50.876;4.736;2023-05-07T01:12:59;13.70;99.90
8820;DHT22;4446;50.876;4.736;2023-05-07T01:15:27;13.70;99.90
8820;DHT22;4446;50.876;4.736;2023-05-07T01:17:54;13.70;99.90
8820;DHT22;4446;50.876;4.736;2023-05-07T01:20:23;13.70;99.90
8820;DHT22;4446;50.876;4.736;2023-05-07T01:22:51;13.70;99.90
8820;DHT22;4446;50.876;4.736;2023-05-07T01:25:18;13.70;99.90
8820;DHT22;4446;50.876;4.736;2023-05-07T01:27:46;13.70;99.90
8820;DHT22;4446;50.876;4.736;2023-05-07T01:30:13;13.70;99.90
8820;DHT22;4446;50.876;4.736;2023-05-07T01:32:42;13.70;99.90
8820;DHT22;4446;50.876;4.736;2023-05-07T01:35:12;13.70;99.90
8820;DHT22;4446;50.876;4.736;2023-05-07T01:37:40;13.70;99.90
8820;DHT22;4446;50.876;4.736;2023-05-07T01:40:10;13.80;99.90
8820;DHT22;4446;50.876;4.736;2023-05-07T01:42:37;13.80;99.90
8820;DHT22;4446;50.876;4.736;2023-05-07T01:45:05;13.80;99.90
8820;DHT22;4446;50.876;4.736;2023-05-07T01:47:33;13.80;99.90
8820;DHT22;4446;50.876;4.736;2023-05-07T01:50:00;13.80;99.90
8820;DHT22;4446;50.876;4.736;2023-05-07T01:52:28;13.80;99.90
8820;DHT22;4446;50.876;4.736;2023-05-07T01:54:55;13.80;99.90
8820;DHT22;4446;50.876;4.736;2023-05-07T01:57:24;13.80;99.90
8820;DHT22;4446;50.876;4.736;2023-05-07T01:59:51;13.80;99.90
8820;DHT22;4446;50.876;4.736;2023-05-07T02:02:17;13.80;99.90
8820;DHT22;4446;50.876;4.736;2023-05-07T02:04:44;13.80;99.90
8820;DHT22;4446;50.876;4.736;2023-05-07T02:07:11;13.90;99.90
8820;DHT22;4446;50.876;4.736;2023-05-07T02:09:38;13.90;99.90
8820;DHT22;4446;50.876;4.736;2023-05-07T02:12:05;13.90;99.90
8820;DHT22;4446;50.876;4.736;2023-05-07T02:14:34;13.90;99.90
8820;DHT22;4446;50.876;4.736;2023-05-07T02:17:01;13.90;99.90
8820;DHT22;4446;50.876;4.736;2023-05-07T02:19:28;13.90;99.90
8820;DHT22;4446;50.876;4.736;2023-05-07T02:21:55;13.90;99.90
8820;DHT22;4446;50.876;4.736;2023-05-07T02:24:21;13.90;99.90
8820;DHT22;4446;50.876;4.736;2023-05-07T02:26:49;13.90;99.90
8820;DHT22;4446;50.876;4.736;2023-05-07T02:29:16;13.90;99.90
8820;DHT22;4446;50.876;4.736;2023-05-07T02:31:44;13.80;99.90
8820;DHT22;4446;50.876;4.736;2023-05-07T02:34:11;13.90;99.90
8820;DHT22;4446;50.876;4.736;2023-05-07T02:36:38;13.90;99.90
8820;DHT22;4446;50.876;4.736;2023-05-07T02:39:05;13.90;99.90
8820;DHT22;4446;50.876;4.736;2023-05-07T02:41:32;13.80;99.90
8820;DHT22;4446;50.876;4.736;2023-05-07T02:43:59;13.80;99.90
8820;DHT22;4446;50.876;4.736;2023-05-07T02:46:26;13.80;99.90
8820;DHT22;4446;50.876;4.736;2023-05-07T02:48:55;13.80;99.90
8820;DHT22;4446;50.876;4.736;2023-05-07T02:51:23;13.80;99.90
8820;DHT22;4446;50.876;4.736;2023-05-07T02:53:50;13.80;99.90
8820;DHT22;4446;50.876;4.736;2023-05-07T02:56:17;13.80;99.90
8820;DHT22;4446;50.876;4.736;2023-05-07T02:58:44;13.80;99.90
8820;DHT22;4446;50.876;4.736;2023-05-07T03:01:11;13.90;99.90
8820;DHT22;4446;50.876;4.736;2023-05-07T03:03:39;13.90;99.90
8820;DHT22;4446;50.876;4.736;2023-05-07T03:06:08;13.80;99.90
8820;DHT22;4446;50.876;4.736;2023-05-07T03:08:35;13.80;99.90
8820;DHT22;4446;50.876;4.736;2023-05-07T03:11:02;13.70;99.90
8820;DHT22;4446;50.876;4.736;2023-05-07T03:13:29;13.80;99.90
8820;DHT22;4446;50.876;4.736;2023-05-07T03:15:56;13.80;99.90
8820;DHT22;4446;50.876;4.736;2023-05-07T03:18:23;13.80;99.90
8820;DHT22;4446;50.876;4.736;2023-05-07T03:20:51;13.80;99.90
8820;DHT22;4446;50.876;4.736;2023-05-07T03:23:19;13.90;99.90
8820;DHT22;4446;50.876;4.736;2023-05-07T03:25:46;14.00;99.90
8820;DHT22;4446;50.876;4.736;2023-05-07T03:28:13;14.10;99.90
8820;DHT22;4446;50.876;4.736;2023-05-07T03:30:40;14.10;99.90
8820;DHT22;4446;50.876;4.736;2023-05-07T03:33:07;14.10;99.90
8820;DHT22;4446;50.876;4.736;2023-05-07T03:35:34;14.10;99.90
8820;DHT22;4446;50.876;4.736;2023-05-07T03:38:01;14.10;99.90
8820;DHT22;4446;50.876;4.736;2023-05-07T03:40:29;14.00;99.90
8820;DHT22;4446;50.876;4.736;2023-05-07T03:42:56;14.00;99.90
8820;DHT22;4446;50.876;4.736;2023-05-07T03:45:23;14.00;99.90
8820;DHT22;4446;50.876;4.736;2023-05-07T03:47:50;13.90;99.90
8820;DHT22;4446;50.876;4.736;2023-05-07T03:50:17;13.90;99.90
8820;DHT22;4446;50.876;4.736;2023-05-07T03:52:44;13.90;99.90
8820;DHT22;4446;50.876;4.736;2023-05-07T03:55:11;13.90;99.90
8820;DHT22;4446;50.876;4.736;2023-05-07T03:57:39;13.80;99.90
8820;DHT22;4446;50.876;4.736;2023-05-07T04:00:07;13.80;99.90
8820;DHT22;4446;50.876;4.736;2023-05-07T04:02:34;13.80;99.90
8820;DHT22;4446;50.876;4.736;2023-05-07T04:05:01;13.90;99.90
8820;DHT22;4446;50.876;4.736;2023-05-07T04:07:28;13.90;99.90
8820;DHT22;4446;50.876;4.736;2023-05-07T04:09:55;13.90;99.90
8820;DHT22;4446;50.876;4.736;2023-05-07T04:12:22;13.90;99.90
8820;DHT22;4446;50.876;4.736;2023-05-07T04:14:50;13.80;99.90
8820;DHT22;4446;50.876;4.736;2023-05-07T04:17:17;13.80;99.90
8820;DHT22;4446;50.876;4.736;2023-05-07T04:19:44;13.80;99.90
8820;DHT22;4446;50.876;4.736;2023-05-07T04:22:12;13.80;99.90
8820;DHT22;4446;50.876;4.736;2023-05-07T04:24:39;13.80;99.90
8820;DHT22;4446;50.876;4.736;2023-05-07T04:27:06;13.80;99.90
8820;DHT22;4446;50.876;4.736;2023-05-07T04:29:33;13.70;99.90
8820;DHT22;4446;50.876;4.736;2023-05-07T04:32:02;13.70;99.90
8820;DHT22;4446;50.876;4.736;2023-05-07T04:34:29;13.60;99.90
8820;DHT22;4446;50.876;4.736;2023-05-07T04:36:58;13.60;99.90
8820;DHT22;4446;50.876;4.736;2023-05-07T04:39:26;13.60;99.90
8820;DHT22;4446;50.876;4.736;2023-05-07T04:41:54;13.60;99.90
8820;DHT22;4446;50.876;4.736;2023-05-07T04:44:21;13.60;99.90
8820;DHT22;4446;50.876;4.736;2023-05-07T04:46:48;13.70;99.90
8820;DHT22;4446;50.876;4.736;2023-05-07T04:49:16;13.70;99.90
8820;DHT22;4446;50.876;4.736;2023-05-07T04:51:43;13.60;99.90
8820;DHT22;4446;50.876;4.736;2023-05-07T04:54:10;13.60;99.90
8820;DHT22;4446;50.876;4.736;2023-05-07T04:56:37;13.70;99.90
8820;DHT22;4446;50.876;4.736;2023-05-07T04:59:04;13.70;99.90
8820;DHT22;4446;50.876;4.736;2023-05-07T05:01:32;13.70;99.90
8820;DHT22;4446;50.876;4.736;2023-05-07T05:03:59;13.70;99.90
8820;DHT22;4446;50.876;4.736;2023-05-07T05:06:28;13.80;99.90
8820;DHT22;4446;50.876;4.736;2023-05-07T05:08:55;13.80;99.90
8820;DHT22;4446;50.876;4.736;2023-05-07T05:11:22;13.90;99.90
8820;DHT22;4446;50.876;4.736;2023-05-07T05:13:49;14.10;99.90
8820;DHT22;4446;50.876;4.736;2023-05-07T05:16:16;14.20;99.90
8820;DHT22;4446;50.876;4.736;2023-05-07T05:18:43;14.40;99.90
8820;DHT22;4446;50.876;4.736;2023-05-07T05:21:10;14.40;99.90
8820;DHT22;4446;50.876;4.736;2023-05-07T05:23:38;14.50;99.90
8820;DHT22;4446;50.876;4.736;2023-05-07T05:26:05;14.60;99.90
8820;DHT22;4446;50.876;4.736;2023-05-07T05:28:32;14.70;99.90
8820;DHT22;4446;50.876;4.736;2023-05-07T05:30:59;14.70;99.90
8820;DHT22;4446;50.876;4.736;2023-05-07T05:33:26;14.80;99.90
8820;DHT22;4446;50.876;4.736;2023-05-07T05:35:54;14.90;99.90
8820;DHT22;4446;50.876;4.736;2023-05-07T05:38:21;15.00;99.90
8820;DHT22;4446;50.876;4.736;2023-05-07T05:40:49;15.00;99.90
8820;DHT22;4446;50.876;4.736;2023-05-07T05:43:16;15.10;99.90
8820;DHT22;4446;50.876;4.736;2023-05-07T05:45:43;15.10;99.90
8820;DHT22;4446;50.876;4.736;2023-05-07T05:48:10;15.20;99.90
8820;DHT22;4446;50.876;4.736;2023-05-07T05:50:37;15.20;99.90
8820;DHT22;4446;50.876;4.736;2023-05-07T05:53:04;15.20;99.90
8820;DHT22;4446;50.876;4.736;2023-05-07T05:55:31;15.30;99.90
8820;DHT22;4446;50.876;4.736;2023-05-07T05:58:00;15.30;99.90
8820;DHT22;4446;50.876;4.736;2023-05-07T06:00:28;15.30;99.90
8820;DHT22;4446;50.876;4.736;2023-05-07T06:02:55;15.40;99.90
8820;DHT22;4446;50.876;4.736;2023-05-07T06:05:22;15.40;99.90
8820;DHT22;4446;50.876;4.736;2023-05-07T06:07:49;15.60;99.90
8820;DHT22;4446;50.876;4.736;2023-05-07T06:10:16;15.70;99.90
8820;DHT22;4446;50.876;4.736;2023-05-07T06:12:43;15.80;99.90
8820;DHT22;4446;50.876;4.736;2023-05-07T06:15:12;15.90;99.90
8820;DHT22;4446;50.876;4.736;2023-05-07T06:17:39;15.90;99.90
8820;DHT22;4446;50.876;4.736;2023-05-07T06:20:07;16.00;99.90
8820;DHT22;4446;50.876;4.736;2023-05-07T06:22:34;16.10;99.90
8820;DHT22;4446;50.876;4.736;2023-05-07T06:25:01;16.20;99.90
8820;DHT22;4446;50.876;4.736;2023-05-07T06:27:28;16.20;99.90
8820;DHT22;4446;50.876;4.736;2023-05-07T06:29:55;16.30;99.90
8820;DHT22;4446;50.876;4.736;2023-05-07T06:32:23;16.40;99.90
8820;DHT22;4446;50.876;4.736;2023-05-07T06:34:50;16.40;99.90
8820;DHT22;4446;50.876;4.736;2023-05-07T06:37:17;16.50;99.90
8820;DHT22;4446;50.876;4.736;2023-05-07T06:39:44;16.50;99.90
8820;DHT22;4446;50.876;4.736;2023-05-07T06:42:11;16.40;99.90
8820;DHT22;4446;50.876;4.736;2023-05-07T06:44:38;16.40;99.90
8820;DHT22;4446;50.876;4.736;2023-05-07T06:47:05;16.40;99.90
8820;DHT22;4446;50.876;4.736;2023-05-07T06:49:33;16.30;99.90
8820;DHT22;4446;50.876;4.736;2023-05-07T06:52:00;16.20;99.90
8820;DHT22;4446;50.876;4.736;2023-05-07T06:54:28;16.20;99.90
8820;DHT22;4446;50.876;4.736;2023-05-07T06:56:55;16.20;99.90
8820;DHT22;4446;50.876;4.736;2023-05-07T06:59:23;16.20;99.90
8820;DHT22;4446;50.876;4.736;2023-05-07T07:01:50;16.30;99.90
8820;DHT22;4446;50.876;4.736;2023-05-07T07:04:18;16.40;99.90
8820;DHT22;4446;50.876;4.736;2023-05-07T07:06:49;16.30;99.90
8820;DHT22;4446;50.876;4.736;2023-05-07T07:09:16;16.50;99.90
8820;DHT22;4446;50.876;4.736;2023-05-07T07:11:43;16.50;99.90
8820;DHT22;4446;50.876;4.736;2023-05-07T07:14:11;16.70;99.90
8820;DHT22;4446;50.876;4.736;2023-05-07T07:16:38;16.80;99.90
8820;DHT22;4446;50.876;4.736;2023-05-07T07:19:06;16.80;99.90
8820;DHT22;4446;50.876;4.736;2023-05-07T07:21:33;16.90;99.90
8820;DHT22;4446;50.876;4.736;2023-05-07T07:24:02;17.00;99.90
8820;DHT22;4446;50.876;4.736;2023-05-07T07:26:29;17.20;99.90
8820;DHT22;4446;50.876;4.736;2023-05-07T07:28:56;17.20;99.90
8820;DHT22;4446;50.876;4.736;2023-05-07T07:31:23;17.30;99.90
8820;DHT22;4446;50.876;4.736;2023-05-07T07:33:50;17.30;99.90
8820;DHT22;4446;50.876;4.736;2023-05-07T07:36:17;17.40;99.90
8820;DHT22;4446;50.876;4.736;2023-05-07T07:38:44;17.40;99.90
8820;DHT22;4446;50.876;4.736;2023-05-07T07:41:12;17.40;99.90
8820;DHT22;4446;50.876;4.736;2023-05-07T07:43:40;17.40;99.90
8820;DHT22;4446;50.876;4.736;2023-05-07T07:46:07;17.40;99.90
8820;DHT22;4446;50.876;4.736;2023-05-07T07:48:34;17.30;99.90
8820;DHT22;4446;50.876;4.736;2023-05-07T07:51:01;17.30;99.90
8820;DHT22;4446;50.876;4.736;2023-05-07T07:53:28;17.30;99.90
8820;DHT22;4446;50.876;4.736;2023-05-07T07:55:56;17.30;99.90
8820;DHT22;4446;50.876;4.736;2023-05-07T07:58:24;17.30;99.90
8820;DHT22;4446;50.876;4.736;2023-05-07T08:00:51;17.20;99.90
8820;DHT22;4446;50.876;4.736;2023-05-07T08:03:21;17.30;99.90
8820;DHT22;4446;50.876;4.736;2023-05-07T08:05:48;17.20;99.90
8820;DHT22;4446;50.876;4.736;2023-05-07T08:08:16;17.30;99.90
8820;DHT22;4446;50.876;4.736;2023-05-07T08:10:43;17.40;99.90
8820;DHT22;4446;50.876;4.736;2023-05-07T08:13:10;17.40;99.90
8820;DHT22;4446;50.876;4.736;2023-05-07T08:15:39;17.50;99.90
8820;DHT22;4446;50.876;4.736;2023-05-07T08:18:06;17.60;99.90
8820;DHT22;4446;50.876;4.736;2023-05-07T08:20:33;17.70;99.90
8820;DHT22;4446;50.876;4.736;2023-05-07T08:23:04;17.60;99.90
8820;DHT22;4446;50.876;4.736;2023-05-07T08:25:33;17.60;99.90
8820;DHT22;4446;50.876;4.736;2023-05-07T08:28:00;17.70;99.90
8820;DHT22;4446;50.876;4.736;2023-05-07T08:30:27;17.60;99.90
8820;DHT22;4446;50.876;4.736;2023-05-07T08:32:55;17.50;99.90
8820;DHT22;4446;50.876;4.736;2023-05-07T08:35:22;17.50;99.90
8820;DHT22;4446;50.876;4.736;2023-05-07T08:37:51;17.40;99.90
8820;DHT22;4446;50.876;4.736;2023-05-07T08:40:18;17.30;99.90
8820;DHT22;4446;50.876;4.736;2023-05-07T08:42:48;17.40;99.90
8820;DHT22;4446;50.876;4.736;2023-05-07T08:45:15;17.50;99.90
8820;DHT22;4446;50.876;4.736;2023-05-07T08:47:47;17.50;99.90
8820;DHT22;4446;50.876;4.736;2023-05-07T08:50:18;17.40;99.90
8820;DHT22;4446;50.876;4.736;2023-05-07T08:52:47;17.30;99.90
8820;DHT22;4446;50.876;4.736;2023-05-07T08:55:14;17.30;99.90
8820;DHT22;4446;50.876;4.736;2023-05-07T08:57:42;17.30;99.90
8820;DHT22;4446;50.876;4.736;2023-05-07T09:00:09;17.40;99.90
8820;DHT22;4446;50.876;4.736;2023-05-07T09:02:37;17.30;99.90
8820;DHT22;4446;50.876;4.736;2023-05-07T09:05:05;17.30;99.90
8820;DHT22;4446;50.876;4.736;2023-05-07T09:07:33;17.30;99.90
8820;DHT22;4446;50.876;4.736;2023-05-07T09:10:02;17.20;99.90
8820;DHT22;4446;50.876;4.736;2023-05-07T09:12:29;17.20;99.90
8820;DHT22;4446;50.876;4.736;2023-05-07T09:14:56;17.10;99.90
8820;DHT22;4446;50.876;4.736;2023-05-07T09:17:23;17.10;99.90
8820;DHT22;4446;50.876;4.736;2023-05-07T09:19:50;17.00;99.90
8820;DHT22;4446;50.876;4.736;2023-05-07T09:22:19;17.00;99.90
8820;DHT22;4446;50.876;4.736;2023-05-07T09:24:49;17.00;99.90
8820;DHT22;4446;50.876;4.736;2023-05-07T09:27:17;17.00;99.90
8820;DHT22;4446;50.876;4.736;2023-05-07T09:29:45;17.00;99.90
8820;DHT22;4446;50.876;4.736;2023-05-07T09:32:11;16.90;99.90
8820;DHT22;4446;50.876;4.736;2023-05-07T09:34:38;16.80;99.90
8820;DHT22;4446;50.876;4.736;2023-05-07T09:37:07;16.70;99.90
8820;DHT22;4446;50.876;4.736;2023-05-07T09:39:41;16.70;99.90
8820;DHT22;4446;50.876;4.736;2023-05-07T09:42:09;16.60;99.90
8820;DHT22;4446;50.876;4.736;2023-05-07T09:44:37;16.70;99.90
8820;DHT22;4446;50.876;4.736;2023-05-07T09:47:05;16.70;99.90
8820;DHT22;4446;50.876;4.736;2023-05-07T09:49:34;16.70;99.90
8820;DHT22;4446;50.876;4.736;2023-05-07T09:52:03;16.80;99.90
8820;DHT22;4446;50.876;4.736;2023-05-07T09:54:32;16.70;99.90
8820;DHT22;4446;50.876;4.736;2023-05-07T09:57:01;16.70;99.90
8820;DHT22;4446;50.876;4.736;2023-05-07T09:59:31;16.70;99.90
8820;DHT22;4446;50.876;4.736;2023-05-07T10:01:59;16.70;99.90
8820;DHT22;4446;50.876;4.736;2023-05-07T10:04:31;16.70;99.90
8820;DHT22;4446;50.876;4.736;2023-05-07T10:06:59;16.70;99.90
8820;DHT22;4446;50.876;4.736;2023-05-07T10:09:26;16.70;99.90
8820;DHT22;4446;50.876;4.736;2023-05-07T10:11:54;16.70;99.90
8820;DHT22;4446;50.876;4.736;2023-05-07T10:14:21;16.60;99.90
8820;DHT22;4446;50.876;4.736;2023-05-07T10:16:50;16.70;99.90
8820;DHT22;4446;50.876;4.736;2023-05-07T10:19:18;16.70;99.90
8820;DHT22;4446;50.876;4.736;2023-05-07T10:21:54;16.60;99.90
8820;DHT22;4446;50.876;4.736;2023-05-07T10:24:25;16.70;99.90
8820;DHT22;4446;50.876;4.736;2023-05-07T10:26:53;16.80;99.90
8820;DHT22;4446;50.876;4.736;2023-05-07T10:29:32;16.90;99.90
8820;DHT22;4446;50.876;4.736;2023-05-07T10:32:11;17.00;99.90
8820;DHT22;4446;50.876;4.736;2023-05-07T10:34:44;17.10;99.90
8820;DHT22;4446;50.876;4.736;2023-05-07T10:37:12;17.20;99.90
8820;DHT22;4446;50.876;4.736;2023-05-07T10:39:40;17.10;99.90
8820;DHT22;4446;50.876;4.736;2023-05-07T10:42:08;17.10;99.90
8820;DHT22;4446;50.876;4.736;2023-05-07T10:44:36;17.10;99.90
8820;DHT22;4446;50.876;4.736;2023-05-07T10:47:09;17.10;99.90
8820;DHT22;4446;50.876;4.736;2023-05-07T10:49:37;17.10;99.90
8820;DHT22;4446;50.876;4.736;2023-05-07T10:52:15;17.10;99.90
8820;DHT22;4446;50.876;4.736;2023-05-07T10:54:42;17.10;99.90
8820;DHT22;4446;50.876;4.736;2023-05-07T10:57:43;17.20;99.90
8820;DHT22;4446;50.876;4.736;2023-05-07T11:00:43;17.30;99.90
8820;DHT22;4446;50.876;4.736;2023-05-07T11:03:12;17.30;99.90
8820;DHT22;4446;50.876;4.736;2023-05-07T11:05:40;17.40;99.90
8820;DHT22;4446;50.876;4.736;2023-05-07T11:08:08;17.40;99.90
8820;DHT22;4446;50.876;4.736;2023-05-07T11:10:50;17.40;99.90
8820;DHT22;4446;50.876;4.736;2023-05-07T11:13:18;17.40;99.90
8820;DHT22;4446;50.876;4.736;2023-05-07T11:15:46;17.40;99.90
8820;DHT22;4446;50.876;4.736;2023-05-07T11:18:16;17.30;99.90
8820;DHT22;4446;50.876;4.736;2023-05-07T11:20:46;17.30;99.90
8820;DHT22;4446;50.876;4.736;2023-05-07T11:26:13;17.30;99.90
8820;DHT22;4446;50.876;4.736;2023-05-07T11:28:42;17.30;99.90
8820;DHT22;4446;50.876;4.736;2023-05-07T11:31:09;17.40;99.90
8820;DHT22;4446;50.876;4.736;2023-05-07T11:33:38;17.50;99.90
8820;DHT22;4446;50.876;4.736;2023-05-07T11:36:08;17.50;99.90
8820;DHT22;4446;50.876;4.736;2023-05-07T11:38:35;17.40;99.90
8820;DHT22;4446;50.876;4.736;2023-05-07T11:41:03;17.50;99.90
8820;DHT22;4446;50.876;4.736;2023-05-07T11:43:31;17.40;99.90
8820;DHT22;4446;50.876;4.736;2023-05-07T11:46:06;17.50;99.90
8820;DHT22;4446;50.876;4.736;2023-05-07T11:48:33;17.70;99.90
8820;DHT22;4446;50.876;4.736;2023-05-07T11:51:03;17.70;99.90
8820;DHT22;4446;50.876;4.736;2023-05-07T11:53:38;17.60;99.90
8820;DHT22;4446;50.876;4.736;2023-05-07T11:56:10;17.70;99.90
8820;DHT22;4446;50.876;4.736;2023-05-07T11:58:39;17.80;99.90
8820;DHT22;4446;50.876;4.736;2023-05-07T12:01:09;17.90;99.90
8820;DHT22;4446;50.876;4.736;2023-05-07T12:03:39;18.00;99.90
8820;DHT22;4446;50.876;4.736;2023-05-07T12:06:10;18.10;99.90
8820;DHT22;4446;50.876;4.736;2023-05-07T12:08:38;18.20;99.90
8820;DHT22;4446;50.876;4.736;2023-05-07T12:11:07;18.30;99.90
8820;DHT22;4446;50.876;4.736;2023-05-07T12:13:35;18.40;99.90
8820;DHT22;4446;50.876;4.736;2023-05-07T12:16:02;18.50;99.90
8820;DHT22;4446;50.876;4.736;2023-05-07T12:18:33;18.40;99.90
8820;DHT22;4446;50.876;4.736;2023-05-07T12:21:05;18.60;99.90
8820;DHT22;4446;50.876;4.736;2023-05-07T12:23:36;18.50;99.90
8820;DHT22;4446;50.876;4.736;2023-05-07T12:26:03;18.60;99.90
8820;DHT22;4446;50.876;4.736;2023-05-07T12:28:31;18.80;99.90
8820;DHT22;4446;50.876;4.736;2023-05-07T12:31:02;18.60;99.90
8820;DHT22;4446;50.876;4.736;2023-05-07T12:33:30;18.60;99.90
8820;DHT22;4446;50.876;4.736;2023-05-07T12:36:00;18.60;99.90
8820;DHT22;4446;50.876;4.736;2023-05-07T12:38:36;18.80;99.90
8820;DHT22;4446;50.876;4.736;2023-05-07T12:41:04;18.70;99.90
8820;DHT22;4446;50.876;4.736;2023-05-07T12:43:32;18.50;99.90
8820;DHT22;4446;50.876;4.736;2023-05-07T12:46:03;18.60;99.90
8820;DHT22;4446;50.876;4.736;2023-05-07T12:48:30;18.70;99.90
8820;DHT22;4446;50.876;4.736;2023-05-07T12:51:00;18.70;99.90
8820;DHT22;4446;50.876;4.736;2023-05-07T12:53:29;18.80;99.90
8820;DHT22;4446;50.876;4.736;2023-05-07T12:55:59;18.80;99.90
8820;DHT22;4446;50.876;4.736;2023-05-07T12:58:27;18.70;99.90
8820;DHT22;4446;50.876;4.736;2023-05-07T13:00:56;18.70;99.90
8820;DHT22;4446;50.876;4.736;2023-05-07T13:03:26;18.60;99.90
8820;DHT22;4446;50.876;4.736;2023-05-07T13:05:54;18.70;99.90
8820;DHT22;4446;50.876;4.736;2023-05-07T13:08:29;18.70;99.90
8820;DHT22;4446;50.876;4.736;2023-05-07T13:11:00;18.70;99.90
8820;DHT22;4446;50.876;4.736;2023-05-07T13:13:29;18.70;99.90
8820;DHT22;4446;50.876;4.736;2023-05-07T13:15:57;18.80;99.90
8820;DHT22;4446;50.876;4.736;2023-05-07T13:18:25;18.60;99.90
8820;DHT22;4446;50.876;4.736;2023-05-07T13:20:52;18.60;99.90
8820;DHT22;4446;50.876;4.736;2023-05-07T13:23:19;18.60;99.90
8820;DHT22;4446;50.876;4.736;2023-05-07T13:25:47;18.70;99.90
8820;DHT22;4446;50.876;4.736;2023-05-07T13:28:15;18.80;99.90
8820;DHT22;4446;50.876;4.736;2023-05-07T13:30:42;18.90;99.90
8820;DHT22;4446;50.876;4.736;2023-05-07T13:33:09;18.90;99.90
8820;DHT22;4446;50.876;4.736;2023-05-07T13:35:36;19.00;99.90
8820;DHT22;4446;50.876;4.736;2023-05-07T13:38:03;18.80;99.90
8820;DHT22;4446;50.876;4.736;2023-05-07T13:40:30;18.90;99.90
8820;DHT22;4446;50.876;4.736;2023-05-07T13:42:58;19.00;99.90
8820;DHT22;4446;50.876;4.736;2023-05-07T13:45:29;19.10;99.90
8820;DHT22;4446;50.876;4.736;2023-05-07T13:47:56;19.00;99.90
8820;DHT22;4446;50.876;4.736;2023-05-07T13:50:23;19.30;99.90
8820;DHT22;4446;50.876;4.736;2023-05-07T13:52:52;19.20;99.90
8820;DHT22;4446;50.876;4.736;2023-05-07T13:55:20;19.00;99.90
8820;DHT22;4446;50.876;4.736;2023-05-07T13:57:53;18.90;99.90
8820;DHT22;4446;50.876;4.736;2023-05-07T14:00:21;18.80;99.90
8820;DHT22;4446;50.876;4.736;2023-05-07T14:02:49;18.70;99.90
8820;DHT22;4446;50.876;4.736;2023-05-07T14:05:16;18.60;99.90
8820;DHT22;4446;50.876;4.736;2023-05-07T14:07:43;18.50;99.90
8820;DHT22;4446;50.876;4.736;2023-05-07T14:10:11;18.50;99.90
8820;DHT22;4446;50.876;4.736;2023-05-07T14:12:38;18.60;99.90
8820;DHT22;4446;50.876;4.736;2023-05-07T14:15:06;18.70;99.90
8820;DHT22;4446;50.876;4.736;2023-05-07T14:17:34;18.70;99.90
8820;DHT22;4446;50.876;4.736;2023-05-07T14:20:02;18.80;99.90
8820;DHT22;4446;50.876;4.736;2023-05-07T14:22:29;18.70;99.90
8820;DHT22;4446;50.876;4.736;2023-05-07T14:24:56;18.60;99.90
8820;DHT22;4446;50.876;4.736;2023-05-07T14:27:23;18.60;99.90
8820;DHT22;4446;50.876;4.736;2023-05-07T14:29:51;18.50;99.90
8820;DHT22;4446;50.876;4.736;2023-05-07T14:32:18;18.50;99.90
8820;DHT22;4446;50.876;4.736;2023-05-07T14:34:45;18.50;99.90
8820;DHT22;4446;50.876;4.736;2023-05-07T14:37:13;18.60;99.90
8820;DHT22;4446;50.876;4.736;2023-05-07T14:39:41;18.70;99.90
8820;DHT22;4446;50.876;4.736;2023-05-07T14:42:08;18.60;99.90
8820;DHT22;4446;50.876;4.736;2023-05-07T14:44:35;18.60;99.90
8820;DHT22;4446;50.876;4.736;2023-05-07T14:47:02;18.50;99.90
8820;DHT22;4446;50.876;4.736;2023-05-07T14:49:29;18.60;99.90
8820;DHT22;4446;50.876;4.736;2023-05-07T14:51:57;18.60;99.90
8820;DHT22;4446;50.876;4.736;2023-05-07T14:54:28;18.60;99.90
8820;DHT22;4446;50.876;4.736;2023-05-07T14:56:55;18.70;99.90
8820;DHT22;4446;50.876;4.736;2023-05-07T14:59:23;18.80;99.90
8820;DHT22;4446;50.876;4.736;2023-05-07T15:01:51;18.90;99.90
8820;DHT22;4446;50.876;4.736;2023-05-07T15:04:18;18.90;99.90
8820;DHT22;4446;50.876;4.736;2023-05-07T15:06:46;18.80;99.90
8820;DHT22;4446;50.876;4.736;2023-05-07T15:09:13;18.70;99.90
8820;DHT22;4446;50.876;4.736;2023-05-07T15:11:42;18.70;99.90
8820;DHT22;4446;50.876;4.736;2023-05-07T15:14:09;18.70;99.90
8820;DHT22;4446;50.876;4.736;2023-05-07T15:16:35;18.80;99.90
8820;DHT22;4446;50.876;4.736;2023-05-07T15:19:02;18.70;99.90
8820;DHT22;4446;50.876;4.736;2023-05-07T15:21:30;18.60;99.90
8820;DHT22;4446;50.876;4.736;2023-05-07T15:24:02;18.60;99.90
8820;DHT22;4446;50.876;4.736;2023-05-07T15:26:29;18.60;99.90
8820;DHT22;4446;50.876;4.736;2023-05-07T15:29:00;18.60;99.90
8820;DHT22;4446;50.876;4.736;2023-05-07T15:31:28;18.70;99.90
8820;DHT22;4446;50.876;4.736;2023-05-07T15:33:55;18.70;99.90
8820;DHT22;4446;50.876;4.736;2023-05-07T15:36:22;18.70;99.90
8820;DHT22;4446;50.876;4.736;2023-05-07T15:38:49;18.80;99.90
8820;DHT22;4446;50.876;4.736;2023-05-07T15:41:16;18.70;99.90
8820;DHT22;4446;50.876;4.736;2023-05-07T15:43:45;18.80;99.90
8820;DHT22;4446;50.876;4.736;2023-05-07T15:46:17;18.70;99.90
8820;DHT22;4446;50.876;4.736;2023-05-07T15:48:49;18.90;99.90
8820;DHT22;4446;50.876;4.736;2023-05-07T15:51:16;18.80;99.90
8820;DHT22;4446;50.876;4.736;2023-05-07T15:53:43;18.80;99.90
8820;DHT22;4446;50.876;4.736;2023-05-07T15:56:11;18.80;99.90
8820;DHT22;4446;50.876;4.736;2023-05-07T15:58:38;18.90;99.90
8820;DHT22;4446;50.876;4.736;2023-05-07T16:01:05;18.90;99.90
8820;DHT22;4446;50.876;4.736;2023-05-07T16:03:33;18.80;99.90
8820;DHT22;4446;50.876;4.736;2023-05-07T16:06:00;18.90;99.90
8820;DHT22;4446;50.876;4.736;2023-05-07T16:08:28;19.00;99.90
8820;DHT22;4446;50.876;4.736;2023-05-07T16:10:56;19.10;99.90